Speedway, Indiana
Current Conditions -  °F | °C
As of 8:53 PM on Sunday 21 Dec 2014 (Local Time) from KEYE Reporting Station
Clear Clear  
Wind Chill: 29°   Ceiling: Unl
Heat Index: 29°   Visibility: 8mi
Dew Point: 25°   Wind: 3mph
Humidity: 85%   Direction: 130°SE
Pressure: 30.12"   Gusts: NA
Location:  39.79°N, 86.25°W
Report Text: KEYE 220153Z AUTO 13003KT 8SM CLR M02/M04 A3012 RMK AO2 SLP210 T10171039
Loading
Personal Weather Stations






























Interactive Weather Map New forecast layout! Learn more

10-Day Weather Forecast

Advertisements
Track Severe Weather on mobile